Terminal Aerodrome Forecast
Issued by NWS

Home | Current Version | Previous Version | Text Only | Print | Product List | Glossary On
Versions: 1 2 3 4 5 6 7 8 9 10 11 12 13
000
FTUS46 KOTX 242320
TAFMWH
TAF
KMWH 242320Z 2500/2524 20008KT P6SM VCSH SCT050 BKN100
     FM250200 VRB05KT P6SM FEW050 SCT100
     FM251800 21010KT P6SM FEW060=

USA.gov is the U.S. government's official web portal to all federal, state and local government web resources and services.